createdAt,value
2022-08-17T00:01:51.431Z,100156.19
2022-08-17T00:04:19.769Z,100157.59
2022-08-17T00:06:49.276Z,100156.19
2022-08-17T00:09:18.972Z,100164.56
2022-08-17T00:12:35.081Z,100162.66
2022-08-17T00:14:35.096Z,100161.84
2022-08-17T00:17:03.683Z,100159.13
2022-08-17T00:19:30.615Z,100160.69
2022-08-17T00:22:34.963Z,100164.00
2022-08-17T00:24:47.477Z,100162.91
2022-08-17T00:27:14.040Z,100161.00
2022-08-17T00:29:40.645Z,100151.78
2022-08-17T00:33:15.012Z,100154.75
2022-08-17T00:34:53.780Z,100163.50
2022-08-17T00:37:20.417Z,100155.19
2022-08-17T00:39:47.069Z,100156.69
2022-08-17T00:42:17.241Z,100157.28
2022-08-17T00:44:45.027Z,100164.59
2022-08-17T00:47:13.301Z,100160.22
2022-08-17T00:49:39.997Z,100166.13
2022-08-17T00:52:15.441Z,100173.56
2022-08-17T00:54:46.833Z,100158.72
2022-08-17T00:57:35.308Z,100161.44
2022-08-17T01:00:19.540Z,100159.25
2022-08-17T01:02:47.919Z,100150.28
2022-08-17T01:05:19.359Z,100155.50
2022-08-17T01:07:50.599Z,100150.59
2022-08-17T01:10:57.350Z,100149.47
2022-08-17T01:13:10.192Z,100147.25
2022-08-17T01:15:40.875Z,100155.75
2022-08-17T01:18:10.684Z,100158.78
2022-08-17T01:20:48.457Z,100161.31
2022-08-17T01:23:20.802Z,100155.81
2022-08-17T01:25:57.424Z,100161.38
2022-08-17T01:28:33.500Z,100155.13
2022-08-17T01:31:13.601Z,100155.50
2022-08-17T01:33:40.261Z,100152.63
2022-08-17T01:36:07.794Z,100154.38
2022-08-17T01:38:36.106Z,100156.25
2022-08-17T01:41:08.300Z,100159.59
2022-08-17T01:43:44.280Z,100151.66
2022-08-17T01:46:16.085Z,100158.84
2022-08-17T01:48:43.566Z,100160.13
2022-08-17T01:51:10.702Z,100160.13
2022-08-17T01:53:42.226Z,100155.44
2022-08-17T01:56:12.099Z,100156.72
2022-08-17T01:58:41.010Z,100157.81
2022-08-17T02:01:10.079Z,100151.88
2022-08-17T02:03:37.872Z,100148.31
2022-08-17T02:06:06.279Z,100149.63
2022-08-17T02:09:02.795Z,100141.59
2022-08-17T02:11:37.775Z,100147.81
2022-08-17T02:14:06.673Z,100149.94
2022-08-17T02:16:37.357Z,100152.59
2022-08-17T02:19:12.891Z,100152.22
2022-08-17T02:21:41.345Z,100152.72
2022-08-17T02:24:10.995Z,100151.97
2022-08-17T02:26:37.739Z,100160.28
2022-08-17T02:29:04.451Z,100154.19
2022-08-17T02:31:31.018Z,100151.91
2022-08-17T02:34:04.487Z,100145.50
2022-08-17T02:36:34.427Z,100153.19
2022-08-17T02:39:06.761Z,100159.44
2022-08-17T02:41:33.732Z,100153.19
2022-08-17T02:44:00.346Z,100155.69
2022-08-17T02:46:26.919Z,100149.22
2022-08-17T02:48:53.630Z,100148.72
2022-08-17T02:51:20.287Z,100149.56
2022-08-17T02:53:46.888Z,100146.22
2022-08-17T02:56:13.684Z,100143.94
2022-08-17T02:58:40.618Z,100146.31
2022-08-17T03:01:09.097Z,100138.97
2022-08-17T03:03:36.939Z,100140.56
2022-08-17T03:06:04.536Z,100143.44
2022-08-17T03:08:31.506Z,100142.38
2022-08-17T03:10:58.167Z,100140.78
2022-08-17T03:13:24.979Z,100142.41
2022-08-17T03:15:51.730Z,100140.22
2022-08-17T03:18:25.714Z,100148.13
2022-08-17T03:20:58.255Z,100137.56
2022-08-17T03:23:27.310Z,100153.28
2022-08-17T03:25:55.823Z,100152.22
2022-08-17T03:28:23.513Z,100156.84
2022-08-17T03:30:51.319Z,100148.06
2022-08-17T03:33:18.646Z,100154.41
2022-08-17T03:35:45.404Z,100163.13
2022-08-17T03:38:15.155Z,100156.28
2022-08-17T03:40:58.703Z,100153.81
2022-08-17T03:43:32.653Z,100160.25
2022-08-17T03:46:28.691Z,100158.47
2022-08-17T03:49:26.000Z,100153.06
2022-08-17T03:52:15.860Z,100148.47
2022-08-17T03:55:02.802Z,100149.78
2022-08-17T03:57:31.373Z,100148.09
2022-08-17T03:59:58.038Z,100145.38
2022-08-17T04:02:28.409Z,100145.41
2022-08-17T04:04:55.068Z,100144.97
2022-08-17T04:07:24.553Z,100142.66
2022-08-17T04:09:51.180Z,100146.44
2022-08-17T04:12:20.279Z,100142.91
2022-08-17T04:14:52.930Z,100141.44
2022-08-17T04:17:26.874Z,100141.84
2022-08-17T04:19:54.603Z,100151.84
2022-08-17T04:22:33.099Z,100145.78
2022-08-17T04:25:16.420Z,100142.00
2022-08-17T04:27:43.226Z,100149.72
2022-08-17T04:30:11.151Z,100152.75
2022-08-17T04:33:13.929Z,100154.53
2022-08-17T04:35:45.814Z,100155.97
2022-08-17T04:38:18.512Z,100159.13
2022-08-17T04:41:04.471Z,100156.59
2022-08-17T04:43:32.517Z,100158.44
2022-08-17T04:46:08.167Z,100155.38
2022-08-17T04:48:38.350Z,100150.34
2022-08-17T04:51:17.223Z,100159.53
2022-08-17T04:53:45.912Z,100158.28
2022-08-17T04:56:21.144Z,100164.78
2022-08-17T04:58:50.278Z,100165.09
2022-08-17T05:01:23.284Z,100152.84
2022-08-17T05:03:52.557Z,100164.78
2022-08-17T05:06:19.413Z,100167.00
2022-08-17T05:08:46.028Z,100167.84
2022-08-17T05:11:12.583Z,100169.50
2022-08-17T05:13:39.181Z,100178.19
2022-08-17T05:16:06.078Z,100192.34
2022-08-17T05:18:32.783Z,100198.38
2022-08-17T05:20:59.370Z,100205.97
2022-08-17T05:23:34.945Z,100197.75
2022-08-17T05:26:15.217Z,100203.69
2022-08-17T05:28:52.594Z,100200.81
2022-08-17T05:31:20.854Z,100210.09
2022-08-17T05:33:47.426Z,100212.47
2022-08-17T05:36:42.576Z,100210.97
2022-08-17T05:39:03.592Z,100218.31
2022-08-17T05:41:30.137Z,100214.16
2022-08-17T05:43:56.918Z,100226.16
2022-08-17T05:46:26.684Z,100220.88
2022-08-17T05:48:58.151Z,100218.00
2022-08-17T05:51:43.155Z,100223.88
2022-08-17T05:54:23.052Z,100231.44
2022-08-17T05:57:27.423Z,100233.59
2022-08-17T06:00:04.471Z,100247.00
2022-08-17T06:03:04.461Z,100242.44
2022-08-17T06:05:48.416Z,100240.06
2022-08-17T06:08:29.651Z,100230.50
2022-08-17T06:11:16.373Z,100227.81
2022-08-17T06:14:08.357Z,100227.59
2022-08-17T06:16:41.059Z,100226.25
2022-08-17T06:19:39.421Z,100221.56
2022-08-17T06:22:11.924Z,100235.00
2022-08-17T06:25:11.250Z,100238.34
2022-08-17T06:27:59.375Z,100242.22
2022-08-17T06:30:57.350Z,100234.28
2022-08-17T06:33:22.218Z,100241.84
2022-08-17T06:36:02.942Z,100240.00
2022-08-17T06:38:53.185Z,100246.94
2022-08-17T06:41:49.409Z,100236.97
2022-08-17T06:44:43.133Z,100239.50
2022-08-17T06:47:28.391Z,100238.25
2022-08-17T06:50:05.628Z,100240.38
2022-08-17T06:52:48.695Z,100246.53
2022-08-17T06:55:33.190Z,100245.00
2022-08-17T06:58:16.218Z,100235.13
2022-08-17T07:00:47.153Z,100243.50
2022-08-17T07:03:37.855Z,100239.03
2022-08-17T07:06:06.775Z,100241.03
2022-08-17T07:09:01.717Z,100239.81
2022-08-17T07:11:39.819Z,100240.69
2022-08-17T07:14:18.705Z,100250.75
2022-08-17T07:16:54.827Z,100253.31
2022-08-17T07:19:33.981Z,100255.38
2022-08-17T07:22:03.769Z,100249.16
2022-08-17T07:24:43.143Z,100245.13
2022-08-17T07:27:15.576Z,100246.91
2022-08-17T07:29:49.705Z,100244.81
2022-08-17T07:32:20.697Z,100245.22
2022-08-17T07:35:05.062Z,100248.81
2022-08-17T07:37:33.272Z,100256.03
2022-08-17T07:40:16.427Z,100262.41
2022-08-17T07:43:01.049Z,100254.03
2022-08-17T07:45:50.079Z,100257.91
2022-08-17T07:48:22.283Z,100257.84
2022-08-17T07:50:50.788Z,100260.34
2022-08-17T07:53:24.111Z,100261.63
2022-08-17T07:55:52.640Z,100262.88
2022-08-17T07:58:23.409Z,100260.09
2022-08-17T08:01:15.464Z,100264.34
2022-08-17T08:03:46.174Z,100271.72
2022-08-17T08:06:22.753Z,100268.38
2022-08-17T08:08:55.198Z,100277.03
2022-08-17T08:11:31.425Z,100274.78
2022-08-17T08:14:38.176Z,100271.09
2022-08-17T08:17:09.219Z,100277.28
2022-08-17T08:19:36.220Z,100279.81
2022-08-17T08:22:09.754Z,100277.22
2022-08-17T08:24:57.666Z,100284.78
2022-08-17T08:28:06.489Z,100281.47
2022-08-17T08:30:40.288Z,100282.78
2022-08-17T08:33:54.895Z,100291.28
2022-08-17T08:37:14.274Z,100288.69
2022-08-17T08:39:51.186Z,100291.53
2022-08-17T08:42:29.516Z,100279.38
2022-08-17T08:45:24.691Z,100278.13
2022-08-17T08:48:57.743Z,100284.03
2022-08-17T08:51:24.122Z,100269.44
2022-08-17T08:54:12.697Z,100269.63
2022-08-17T08:57:22.141Z,100270.97
2022-08-17T09:00:11.212Z,100268.44
2022-08-17T09:02:56.281Z,100270.41
2022-08-17T09:05:39.723Z,100264.91
2022-08-17T09:08:32.555Z,100268.78
2022-08-17T09:11:07.652Z,100260.75
2022-08-17T09:14:07.709Z,100261.22
2022-08-17T09:17:09.345Z,100258.78
2022-08-17T09:20:06.535Z,100268.44
2022-08-17T09:22:42.619Z,100255.59
2022-08-17T09:25:14.592Z,100270.53
2022-08-17T09:27:53.190Z,100262.44
2022-08-17T09:30:20.881Z,100262.00
2022-08-17T09:32:56.350Z,100265.69
2022-08-17T09:35:32.963Z,100270.69
2022-08-17T09:38:32.338Z,100263.09
2022-08-17T09:41:10.693Z,100273.38
2022-08-17T09:43:58.072Z,100272.25
2022-08-17T09:46:51.436Z,100266.81
2022-08-17T09:49:33.512Z,100264.81
2022-08-17T09:52:20.434Z,100268.34
2022-08-17T09:54:48.421Z,100270.91
2022-08-17T09:57:31.315Z,100270.81
2022-08-17T10:00:18.682Z,100267.47
2022-08-17T10:02:57.810Z,100265.97
2022-08-17T10:05:46.199Z,100264.09
2022-08-17T10:08:52.585Z,100258.81
2022-08-17T10:11:54.680Z,100253.63
2022-08-17T10:14:44.319Z,100253.06
2022-08-17T10:17:39.155Z,100247.97
2022-08-17T10:20:30.929Z,100248.72
2022-08-17T10:23:33.653Z,100244.22
2022-08-17T10:26:12.965Z,100246.50
2022-08-17T10:28:59.316Z,100237.50
2022-08-17T10:31:35.536Z,100238.94
2022-08-17T10:34:20.882Z,100242.31
2022-08-17T10:37:04.721Z,100236.56
2022-08-17T10:39:52.369Z,100231.69
2022-08-17T10:42:32.370Z,100226.91
2022-08-17T10:45:15.389Z,100223.97
2022-08-17T10:48:21.144Z,100220.66
2022-08-17T10:51:00.044Z,100221.16
2022-08-17T10:53:32.480Z,100216.97
2022-08-17T10:56:14.111Z,100215.09
2022-08-17T10:58:53.965Z,100215.38
2022-08-17T11:01:32.882Z,100213.41
2022-08-17T11:04:21.282Z,100215.66
2022-08-17T11:07:01.950Z,100222.25
2022-08-17T11:10:06.375Z,100216.66
2022-08-17T11:12:42.197Z,100219.16
2022-08-17T11:15:24.979Z,100215.19
2022-08-17T11:18:19.186Z,100213.97
2022-08-17T11:21:03.941Z,100211.50
2022-08-17T11:24:01.337Z,100217.38
2022-08-17T11:26:34.331Z,100216.50
2022-08-17T11:29:06.270Z,100216.38
2022-08-17T11:31:46.493Z,100218.97
2022-08-17T11:34:26.355Z,100218.50
2022-08-17T11:37:33.476Z,100210.31
2022-08-17T11:40:27.857Z,100213.38
2022-08-17T11:43:17.296Z,100214.53
2022-08-17T11:46:02.316Z,100209.72
2022-08-17T11:48:55.165Z,100205.09
2022-08-17T11:51:27.807Z,100201.00
2022-08-17T11:54:08.635Z,100196.78
2022-08-17T11:56:51.896Z,100194.94
2022-08-17T11:59:33.774Z,100190.94
2022-08-17T12:02:02.138Z,100203.44
2022-08-17T12:04:32.360Z,100204.47
2022-08-17T12:07:19.299Z,100200.25
2022-08-17T12:09:49.581Z,100201.44
2022-08-17T12:12:20.171Z,100202.06
2022-08-17T12:15:09.481Z,100204.97
2022-08-17T12:17:41.442Z,100206.94
2022-08-17T12:20:23.316Z,100202.19
2022-08-17T12:23:09.511Z,100202.09
2022-08-17T12:25:44.020Z,100203.00
2022-08-17T12:28:32.346Z,100207.03
2022-08-17T12:31:19.743Z,100209.06
2022-08-17T12:33:47.863Z,100203.19
2022-08-17T12:36:21.247Z,100203.25
2022-08-17T12:39:13.911Z,100206.59
2022-08-17T12:41:50.355Z,100208.47
2022-08-17T12:44:25.084Z,100207.09
2022-08-17T12:47:19.399Z,100204.72
2022-08-17T12:49:53.404Z,100201.28
2022-08-17T12:52:20.000Z,100203.63
2022-08-17T12:54:52.555Z,100203.91
2022-08-17T12:57:21.120Z,100207.47
2022-08-17T12:59:53.199Z,100200.50
2022-08-17T13:02:31.641Z,100202.22
2022-08-17T13:05:00.680Z,100202.06
2022-08-17T13:07:31.217Z,100196.03
2022-08-17T13:09:58.189Z,100192.47
2022-08-17T13:12:30.876Z,100193.16
2022-08-17T13:14:58.617Z,100188.06
2022-08-17T13:17:28.902Z,100188.75
2022-08-17T13:19:55.844Z,100183.34
2022-08-17T13:22:25.033Z,100185.44
2022-08-17T13:24:57.001Z,100182.66
2022-08-17T13:27:26.000Z,100177.59
2022-08-17T13:29:57.448Z,100184.28
2022-08-17T13:32:31.029Z,100180.88
2022-08-17T13:35:14.462Z,100175.16
2022-08-17T13:37:57.674Z,100178.41
2022-08-17T13:40:38.077Z,100171.69
2022-08-17T13:43:05.323Z,100171.69
2022-08-17T13:45:38.880Z,100162.88
2022-08-17T13:48:11.971Z,100168.28
2022-08-17T13:50:47.747Z,100158.44
2022-08-17T13:53:31.312Z,100161.72
2022-08-17T13:56:07.418Z,100155.00
2022-08-17T13:59:00.219Z,100153.84
2022-08-17T14:01:39.195Z,100150.72
2022-08-17T14:04:09.397Z,100149.81
2022-08-17T14:06:53.021Z,100153.56
2022-08-17T14:09:24.393Z,100148.41
2022-08-17T14:11:53.888Z,100153.84
2022-08-17T14:14:23.071Z,100153.50
2022-08-17T14:16:51.207Z,100150.69
2022-08-17T14:19:18.747Z,100153.50
2022-08-17T14:21:46.713Z,100148.00
2022-08-17T14:24:26.789Z,100153.72
2022-08-17T14:26:53.821Z,100149.09
2022-08-17T14:29:22.509Z,100157.66
2022-08-17T14:31:54.218Z,100151.44
2022-08-17T14:34:22.740Z,100149.97
2022-08-17T14:36:51.507Z,100145.06
2022-08-17T14:39:18.912Z,100138.91
2022-08-17T14:41:45.870Z,100137.00
2022-08-17T14:44:13.146Z,100141.91
2022-08-17T14:46:41.411Z,100147.19
2022-08-17T14:49:09.243Z,100133.00
2022-08-17T14:51:43.563Z,100134.84
2022-08-17T14:54:32.765Z,100137.25
2022-08-17T14:57:14.827Z,100133.25
2022-08-17T14:59:46.999Z,100131.78
2022-08-17T15:02:13.820Z,100133.56
2022-08-17T15:04:45.350Z,100124.47
2022-08-17T15:07:12.429Z,100126.81
2022-08-17T15:09:39.250Z,100116.50
2022-08-17T15:12:06.556Z,100122.44
2022-08-17T15:14:35.302Z,100124.22
2022-08-17T15:17:05.643Z,100124.22
2022-08-17T15:19:32.267Z,100111.63
2022-08-17T15:21:58.947Z,100107.31
2022-08-17T15:24:25.620Z,100107.75
2022-08-17T15:26:52.527Z,100097.66
2022-08-17T15:29:19.081Z,100096.53
2022-08-17T15:31:45.759Z,100092.81
2022-08-17T15:34:12.368Z,100080.69
2022-08-17T15:36:45.496Z,100070.31
2022-08-17T15:39:19.231Z,100072.88
2022-08-17T15:41:47.344Z,100064.00
2022-08-17T15:44:32.483Z,100055.16
2022-08-17T15:47:02.019Z,100049.56
2022-08-17T15:49:29.233Z,100051.47
2022-08-17T15:51:56.103Z,100055.69
2022-08-17T15:54:23.533Z,100058.28
2022-08-17T15:56:50.638Z,100049.09
2022-08-17T15:59:17.227Z,100048.78
2022-08-17T16:03:01.696Z,100049.63
2022-08-17T16:04:31.936Z,100053.53
2022-08-17T16:06:59.827Z,100057.56
2022-08-17T16:09:27.079Z,100067.59
2022-08-17T16:11:55.584Z,100088.63
2022-08-17T16:14:24.184Z,100110.03
2022-08-17T16:16:51.000Z,100124.47
2022-08-17T16:19:18.149Z,100106.09
2022-08-17T16:21:44.736Z,100111.84
2022-08-17T16:24:12.740Z,100115.41
2022-08-17T16:26:40.988Z,100129.19
2022-08-17T16:29:08.335Z,100131.25
2022-08-17T16:31:36.269Z,100127.66
2022-08-17T16:34:16.731Z,100130.56
2022-08-17T16:36:54.978Z,100121.28
2022-08-17T16:39:29.120Z,100126.56
2022-08-17T16:41:57.160Z,100143.78
2022-08-17T16:44:25.825Z,100139.44
2022-08-17T16:46:53.351Z,100136.66
2022-08-17T16:49:35.225Z,100129.91
2022-08-17T16:52:04.999Z,100120.31
2022-08-17T16:54:32.563Z,100112.03
2022-08-17T16:56:59.131Z,100091.03
2022-08-17T16:59:39.439Z,100083.19
2022-08-17T17:02:12.263Z,100081.09
2022-08-17T17:04:51.823Z,100086.66
2022-08-17T17:07:25.726Z,100095.78
2022-08-17T17:09:55.431Z,100096.19
2022-08-17T17:12:34.956Z,100081.25
2022-08-17T17:15:11.156Z,100083.94
2022-08-17T17:17:39.837Z,100090.34
2022-08-17T17:20:13.093Z,100095.38
2022-08-17T17:22:48.062Z,100103.16
2022-08-17T17:25:30.367Z,100107.69
2022-08-17T17:28:09.279Z,100101.69
2022-08-17T17:30:58.784Z,100108.69
2022-08-17T17:33:38.991Z,100109.78
2022-08-17T17:36:13.443Z,100139.41
2022-08-17T17:38:47.470Z,100116.16
2022-08-17T17:41:26.304Z,100129.91
2022-08-17T17:44:01.922Z,100135.22
2022-08-17T17:46:34.341Z,100134.59
2022-08-17T17:49:01.060Z,100133.41
2022-08-17T17:52:05.899Z,100144.31
2022-08-17T17:54:49.936Z,100145.53
2022-08-17T17:57:38.843Z,100145.94
2022-08-17T18:00:08.777Z,100144.91
2022-08-17T18:02:52.008Z,100154.38
2022-08-17T18:05:37.217Z,100160.97
2022-08-17T18:08:34.063Z,100164.75
2022-08-17T18:11:26.606Z,100149.53
2022-08-17T18:14:14.271Z,100149.34
2022-08-17T18:16:42.813Z,100150.28
2022-08-17T18:19:15.098Z,100149.56
2022-08-17T18:21:45.764Z,100151.00
2022-08-17T18:24:13.685Z,100145.66
2022-08-17T18:26:57.375Z,100137.63
2022-08-17T18:29:36.221Z,100132.91
2022-08-17T18:32:16.059Z,100123.84
2022-08-17T18:34:47.523Z,100115.78
2022-08-17T18:37:31.786Z,100115.06
2022-08-17T18:39:58.384Z,100111.09
2022-08-17T18:42:28.037Z,100104.06
2022-08-17T18:44:55.833Z,100102.88
2022-08-17T18:47:29.186Z,100116.31
2022-08-17T18:50:18.795Z,100103.84
2022-08-17T18:52:48.346Z,100112.59
2022-08-17T18:55:21.477Z,100116.88
2022-08-17T18:57:55.331Z,100112.72
2022-08-17T19:00:42.410Z,100112.38
2022-08-17T19:03:15.046Z,100120.19
2022-08-17T19:05:54.801Z,100123.84
2022-08-17T19:08:23.553Z,100124.69
2022-08-17T19:10:55.890Z,100136.28
2022-08-17T19:13:31.573Z,100127.06
2022-08-17T19:16:36.078Z,100132.03
2022-08-17T19:19:14.670Z,100134.75
2022-08-17T19:21:46.769Z,100141.03
2022-08-17T19:24:19.813Z,100137.59
2022-08-17T19:26:55.345Z,100137.53
2022-08-17T19:29:36.853Z,100138.81
2022-08-17T19:32:06.476Z,100142.94
2022-08-17T19:34:35.449Z,100138.19
2022-08-17T19:37:52.499Z,100130.91
2022-08-17T19:40:53.203Z,100120.44
2022-08-17T19:43:38.983Z,100110.59
2022-08-17T19:46:25.838Z,100106.41
2022-08-17T19:48:52.660Z,100101.16
2022-08-17T19:51:33.935Z,100105.06
2022-08-17T19:54:20.314Z,100102.03
2022-08-17T19:56:56.740Z,100104.22
2022-08-17T19:59:39.352Z,100110.06
2022-08-17T20:02:20.769Z,100123.81
2022-08-17T20:04:50.290Z,100120.94
2022-08-17T20:07:23.817Z,100116.22
2022-08-17T20:10:00.952Z,100109.69
2022-08-17T20:12:33.375Z,100108.00
2022-08-17T20:15:11.414Z,100112.84
2022-08-17T20:17:45.554Z,100105.41
2022-08-17T20:20:26.848Z,100115.84
2022-08-17T20:23:12.874Z,100111.91
2022-08-17T20:25:59.651Z,100111.94
2022-08-17T20:28:30.433Z,100115.50
2022-08-17T20:30:58.758Z,100115.56
2022-08-17T20:33:38.166Z,100115.13
2022-08-17T20:36:10.777Z,100115.13
2022-08-17T20:38:44.604Z,100125.09
2022-08-17T20:41:20.698Z,100127.63
2022-08-17T20:43:58.800Z,100120.22
2022-08-17T20:46:37.850Z,100123.75
2022-08-17T20:49:31.905Z,100129.84
2022-08-17T20:52:09.397Z,100121.91
2022-08-17T20:54:44.406Z,100122.59
2022-08-17T20:57:33.192Z,100127.91
2022-08-17T21:00:17.144Z,100131.91
2022-08-17T21:02:47.033Z,100133.19
2022-08-17T21:05:34.400Z,100133.00
2022-08-17T21:08:16.586Z,100127.78
2022-08-17T21:10:45.438Z,100125.38
2022-08-17T21:13:13.998Z,100130.09
2022-08-17T21:15:49.866Z,100129.16
2022-08-17T21:18:35.484Z,100119.25
2022-08-17T21:21:17.966Z,100125.34
2022-08-17T21:24:10.254Z,100141.66
2022-08-17T21:27:07.015Z,100125.81
2022-08-17T21:29:40.523Z,100125.06
2022-08-17T21:32:09.498Z,100122.38
2022-08-17T21:34:39.237Z,100122.72
2022-08-17T21:37:23.551Z,100128.22
2022-08-17T21:40:00.636Z,100130.00
2022-08-17T21:42:30.195Z,100127.94
2022-08-17T21:45:09.746Z,100125.19
2022-08-17T21:47:40.554Z,100137.84
2022-08-17T21:50:19.725Z,100134.25
2022-08-17T21:52:48.813Z,100132.81
2022-08-17T21:55:21.952Z,100134.94
2022-08-17T21:57:52.787Z,100135.66
2022-08-17T22:00:36.146Z,100128.84
2022-08-17T22:03:07.229Z,100127.97
2022-08-17T22:05:37.595Z,100128.59
2022-08-17T22:08:16.677Z,100126.34
2022-08-17T22:10:46.016Z,100123.56
2022-08-17T22:13:20.244Z,100125.94
2022-08-17T22:15:50.790Z,100135.22
2022-08-17T22:18:24.686Z,100134.50
2022-08-17T22:20:57.557Z,100139.03
2022-08-17T22:23:52.425Z,100141.19
2022-08-17T22:26:22.870Z,100147.38
2022-08-17T22:28:58.281Z,100144.16
2022-08-17T22:31:55.098Z,100149.38
2022-08-17T22:34:21.651Z,100152.66
2022-08-17T22:36:48.495Z,100157.19
2022-08-17T22:39:15.279Z,100157.09
2022-08-17T22:41:50.709Z,100166.41
2022-08-17T22:44:23.200Z,100170.84
2022-08-17T22:47:02.114Z,100172.94
2022-08-17T22:49:53.998Z,100177.47
2022-08-17T22:52:57.930Z,100186.25
2022-08-17T22:55:44.782Z,100189.38
2022-08-17T22:58:33.424Z,100191.25
2022-08-17T23:01:28.320Z,100195.72
2022-08-17T23:04:08.157Z,100204.63
2022-08-17T23:06:37.703Z,100210.16
2022-08-17T23:09:06.473Z,100216.78
2022-08-17T23:11:49.846Z,100206.63
2022-08-17T23:14:19.690Z,100203.97
2022-08-17T23:16:47.729Z,100212.63
2022-08-17T23:19:18.595Z,100213.22
2022-08-17T23:21:45.873Z,100198.09
2022-08-17T23:24:19.358Z,100201.19
2022-08-17T23:26:46.143Z,100209.88
2022-08-17T23:29:12.740Z,100206.88
2022-08-17T23:31:39.871Z,100200.09
2022-08-17T23:34:11.531Z,100208.22
2022-08-17T23:36:38.504Z,100202.81
2022-08-17T23:39:06.809Z,100199.06
2022-08-17T23:41:39.802Z,100194.00
2022-08-17T23:44:07.372Z,100180.78
2022-08-17T23:46:34.644Z,100180.22
2022-08-17T23:49:01.398Z,100179.75
2022-08-17T23:51:31.465Z,100182.88
2022-08-17T23:54:07.666Z,100191.41
2022-08-17T23:56:40.058Z,100189.50
2022-08-17T23:59:06.642Z,100191.66
